sensor_id;sensor_type;location;lat;lon;timestamp;P1;durP1;ratioP1;P2;durP2;ratioP2
12725;SDS011;6427;49.754;6.106;2023-09-19T00:00:46;5.97;;;2.40;;
12725;SDS011;6427;49.754;6.106;2023-09-19T00:03:14;6.23;;;2.57;;
12725;SDS011;6427;49.754;6.106;2023-09-19T00:05:42;5.67;;;2.03;;
12725;SDS011;6427;49.754;6.106;2023-09-19T00:08:12;6.83;;;2.40;;
12725;SDS011;6427;49.754;6.106;2023-09-19T00:10:42;6.30;;;2.13;;
12725;SDS011;6427;49.754;6.106;2023-09-19T00:13:10;8.87;;;2.40;;
12725;SDS011;6427;49.754;6.106;2023-09-19T00:15:41;3.83;;;2.20;;
12725;SDS011;6427;49.754;6.106;2023-09-19T00:18:08;10.80;;;2.50;;
12725;SDS011;6427;49.754;6.106;2023-09-19T00:20:36;6.43;;;2.70;;
12725;SDS011;6427;49.754;6.106;2023-09-19T00:23:03;5.13;;;2.43;;
12725;SDS011;6427;49.754;6.106;2023-09-19T00:25:33;7.82;;;2.80;;
12725;SDS011;6427;49.754;6.106;2023-09-19T00:28:01;5.73;;;2.23;;
12725;SDS011;6427;49.754;6.106;2023-09-19T00:30:28;7.43;;;2.40;;
12725;SDS011;6427;49.754;6.106;2023-09-19T00:32:56;7.57;;;2.53;;
12725;SDS011;6427;49.754;6.106;2023-09-19T00:35:23;5.03;;;2.57;;
12725;SDS011;6427;49.754;6.106;2023-09-19T00:37:51;4.43;;;2.33;;
12725;SDS011;6427;49.754;6.106;2023-09-19T00:40:19;6.07;;;2.40;;
12725;SDS011;6427;49.754;6.106;2023-09-19T00:42:46;6.33;;;2.37;;
12725;SDS011;6427;49.754;6.106;2023-09-19T00:45:15;6.50;;;2.80;;
12725;SDS011;6427;49.754;6.106;2023-09-19T00:47:45;4.43;;;2.23;;
12725;SDS011;6427;49.754;6.106;2023-09-19T00:50:19;6.30;;;2.77;;
12725;SDS011;6427;49.754;6.106;2023-09-19T00:52:46;6.60;;;2.53;;
12725;SDS011;6427;49.754;6.106;2023-09-19T00:55:14;8.73;;;2.60;;
12725;SDS011;6427;49.754;6.106;2023-09-19T00:57:41;5.93;;;2.40;;
12725;SDS011;6427;49.754;6.106;2023-09-19T01:00:09;8.40;;;2.53;;
12725;SDS011;6427;49.754;6.106;2023-09-19T01:02:39;5.60;;;2.70;;
12725;SDS011;6427;49.754;6.106;2023-09-19T01:05:07;10.73;;;2.90;;
12725;SDS011;6427;49.754;6.106;2023-09-19T01:07:35;4.87;;;2.30;;
12725;SDS011;6427;49.754;6.106;2023-09-19T01:10:03;6.70;;;2.80;;
12725;SDS011;6427;49.754;6.106;2023-09-19T01:12:42;13.37;;;2.77;;
12725;SDS011;6427;49.754;6.106;2023-09-19T01:17:43;8.07;;;2.40;;
12725;SDS011;6427;49.754;6.106;2023-09-19T01:26:04;9.17;;;3.17;;
12725;SDS011;6427;49.754;6.106;2023-09-19T01:28:30;7.15;;;2.90;;
12725;SDS011;6427;49.754;6.106;2023-09-19T01:30:59;5.60;;;2.00;;
12725;SDS011;6427;49.754;6.106;2023-09-19T01:33:26;3.63;;;2.50;;
12725;SDS011;6427;49.754;6.106;2023-09-19T01:35:55;7.80;;;2.13;;
12725;SDS011;6427;49.754;6.106;2023-09-19T01:38:22;8.00;;;2.30;;
12725;SDS011;6427;49.754;6.106;2023-09-19T01:41:01;12.43;;;3.20;;
12725;SDS011;6427;49.754;6.106;2023-09-19T01:43:23;5.97;;;2.50;;
12725;SDS011;6427;49.754;6.106;2023-09-19T01:49:27;7.87;;;2.70;;
12725;SDS011;6427;49.754;6.106;2023-09-19T01:51:02;7.03;;;2.73;;
12725;SDS011;6427;49.754;6.106;2023-09-19T01:53:43;7.67;;;2.40;;
12725;SDS011;6427;49.754;6.106;2023-09-19T01:56:45;6.67;;;2.17;;
12725;SDS011;6427;49.754;6.106;2023-09-19T01:58:50;7.20;;;2.67;;
12725;SDS011;6427;49.754;6.106;2023-09-19T02:01:18;7.70;;;2.93;;
12725;SDS011;6427;49.754;6.106;2023-09-19T02:03:45;7.03;;;2.50;;
12725;SDS011;6427;49.754;6.106;2023-09-19T02:06:16;8.90;;;2.70;;
12725;SDS011;6427;49.754;6.106;2023-09-19T02:08:43;8.23;;;2.50;;
12725;SDS011;6427;49.754;6.106;2023-09-19T02:11:11;6.93;;;2.67;;
12725;SDS011;6427;49.754;6.106;2023-09-19T02:13:38;7.60;;;2.57;;
12725;SDS011;6427;49.754;6.106;2023-09-19T02:16:06;6.83;;;2.33;;
12725;SDS011;6427;49.754;6.106;2023-09-19T02:18:33;10.13;;;2.10;;
12725;SDS011;6427;49.754;6.106;2023-09-19T02:21:03;7.93;;;2.37;;
12725;SDS011;6427;49.754;6.106;2023-09-19T02:23:31;11.77;;;2.50;;
12725;SDS011;6427;49.754;6.106;2023-09-19T02:25:59;8.10;;;2.53;;
12725;SDS011;6427;49.754;6.106;2023-09-19T02:28:30;7.33;;;2.47;;
12725;SDS011;6427;49.754;6.106;2023-09-19T02:30:58;11.53;;;2.07;;
12725;SDS011;6427;49.754;6.106;2023-09-19T02:33:25;5.85;;;2.33;;
12725;SDS011;6427;49.754;6.106;2023-09-19T02:35:56;7.78;;;2.70;;
12725;SDS011;6427;49.754;6.106;2023-09-19T02:38:23;5.10;;;2.03;;
12725;SDS011;6427;49.754;6.106;2023-09-19T02:40:50;9.38;;;2.30;;
12725;SDS011;6427;49.754;6.106;2023-09-19T02:43:18;5.93;;;2.10;;
12725;SDS011;6427;49.754;6.106;2023-09-19T02:45:49;6.87;;;2.40;;
12725;SDS011;6427;49.754;6.106;2023-09-19T02:48:22;6.37;;;1.83;;
12725;SDS011;6427;49.754;6.106;2023-09-19T02:50:50;10.13;;;2.23;;
12725;SDS011;6427;49.754;6.106;2023-09-19T02:53:17;7.05;;;2.00;;
12725;SDS011;6427;49.754;6.106;2023-09-19T02:55:46;8.50;;;1.93;;
12725;SDS011;6427;49.754;6.106;2023-09-19T02:58:16;9.67;;;2.00;;
12725;SDS011;6427;49.754;6.106;2023-09-19T03:00:44;4.67;;;1.90;;
12725;SDS011;6427;49.754;6.106;2023-09-19T03:03:14;5.73;;;1.67;;
12725;SDS011;6427;49.754;6.106;2023-09-19T03:05:42;7.20;;;2.20;;
12725;SDS011;6427;49.754;6.106;2023-09-19T03:08:10;10.17;;;1.97;;
12725;SDS011;6427;49.754;6.106;2023-09-19T03:10:37;4.53;;;1.90;;
12725;SDS011;6427;49.754;6.106;2023-09-19T03:13:05;6.17;;;1.90;;
12725;SDS011;6427;49.754;6.106;2023-09-19T03:15:33;7.10;;;2.10;;
12725;SDS011;6427;49.754;6.106;2023-09-19T03:18:00;4.40;;;1.77;;
12725;SDS011;6427;49.754;6.106;2023-09-19T03:20:28;6.67;;;2.03;;
12725;SDS011;6427;49.754;6.106;2023-09-19T03:22:55;5.27;;;1.80;;
12725;SDS011;6427;49.754;6.106;2023-09-19T03:25:23;4.20;;;2.10;;
12725;SDS011;6427;49.754;6.106;2023-09-19T03:27:51;6.90;;;2.10;;
12725;SDS011;6427;49.754;6.106;2023-09-19T03:30:19;6.57;;;2.47;;
12725;SDS011;6427;49.754;6.106;2023-09-19T03:32:47;7.68;;;2.50;;
12725;SDS011;6427;49.754;6.106;2023-09-19T03:35:14;10.00;;;2.60;;
12725;SDS011;6427;49.754;6.106;2023-09-19T03:37:42;6.17;;;2.10;;
12725;SDS011;6427;49.754;6.106;2023-09-19T03:40:10;6.93;;;2.00;;
12725;SDS011;6427;49.754;6.106;2023-09-19T03:42:40;2.93;;;1.80;;
12725;SDS011;6427;49.754;6.106;2023-09-19T03:45:07;6.37;;;2.13;;
12725;SDS011;6427;49.754;6.106;2023-09-19T03:47:35;5.97;;;2.30;;
12725;SDS011;6427;49.754;6.106;2023-09-19T03:50:03;7.00;;;2.30;;
12725;SDS011;6427;49.754;6.106;2023-09-19T03:52:31;4.30;;;1.70;;
12725;SDS011;6427;49.754;6.106;2023-09-19T03:54:58;7.83;;;2.07;;
12725;SDS011;6427;49.754;6.106;2023-09-19T03:57:26;5.53;;;2.47;;
12725;SDS011;6427;49.754;6.106;2023-09-19T03:59:54;8.23;;;2.07;;
12725;SDS011;6427;49.754;6.106;2023-09-19T04:02:21;8.43;;;1.93;;
12725;SDS011;6427;49.754;6.106;2023-09-19T04:04:49;9.18;;;2.45;;
12725;SDS011;6427;49.754;6.106;2023-09-19T04:07:17;7.77;;;2.27;;
12725;SDS011;6427;49.754;6.106;2023-09-19T04:09:45;7.07;;;2.00;;
12725;SDS011;6427;49.754;6.106;2023-09-19T04:12:13;8.40;;;2.00;;
12725;SDS011;6427;49.754;6.106;2023-09-19T04:14:41;10.87;;;2.17;;
12725;SDS011;6427;49.754;6.106;2023-09-19T04:17:08;4.47;;;1.80;;
12725;SDS011;6427;49.754;6.106;2023-09-19T04:19:36;6.73;;;2.13;;
12725;SDS011;6427;49.754;6.106;2023-09-19T04:22:04;14.03;;;2.47;;
12725;SDS011;6427;49.754;6.106;2023-09-19T04:24:31;6.03;;;2.50;;
12725;SDS011;6427;49.754;6.106;2023-09-19T04:26:59;8.30;;;2.20;;
12725;SDS011;6427;49.754;6.106;2023-09-19T04:29:26;10.48;;;2.47;;
12725;SDS011;6427;49.754;6.106;2023-09-19T04:31:54;9.40;;;2.17;;
12725;SDS011;6427;49.754;6.106;2023-09-19T04:34:22;5.13;;;1.90;;
12725;SDS011;6427;49.754;6.106;2023-09-19T04:36:50;9.45;;;2.65;;
12725;SDS011;6427;49.754;6.106;2023-09-19T04:39:18;6.17;;;2.00;;
12725;SDS011;6427;49.754;6.106;2023-09-19T04:41:45;10.73;;;2.42;;
12725;SDS011;6427;49.754;6.106;2023-09-19T04:44:13;9.27;;;2.50;;
12725;SDS011;6427;49.754;6.106;2023-09-19T04:46:40;10.00;;;2.57;;
12725;SDS011;6427;49.754;6.106;2023-09-19T04:49:11;6.50;;;2.03;;
12725;SDS011;6427;49.754;6.106;2023-09-19T04:51:39;11.50;;;2.17;;
12725;SDS011;6427;49.754;6.106;2023-09-19T04:54:07;10.07;;;2.00;;
12725;SDS011;6427;49.754;6.106;2023-09-19T04:56:35;10.80;;;2.47;;
12725;SDS011;6427;49.754;6.106;2023-09-19T04:59:03;10.83;;;2.23;;
12725;SDS011;6427;49.754;6.106;2023-09-19T05:01:31;13.47;;;3.07;;
12725;SDS011;6427;49.754;6.106;2023-09-19T05:03:59;8.27;;;2.17;;
12725;SDS011;6427;49.754;6.106;2023-09-19T05:06:26;8.03;;;2.37;;
12725;SDS011;6427;49.754;6.106;2023-09-19T05:08:54;7.50;;;2.00;;
12725;SDS011;6427;49.754;6.106;2023-09-19T05:11:22;9.87;;;2.50;;
12725;SDS011;6427;49.754;6.106;2023-09-19T05:13:50;8.50;;;2.43;;
12725;SDS011;6427;49.754;6.106;2023-09-19T05:16:18;9.52;;;2.53;;
12725;SDS011;6427;49.754;6.106;2023-09-19T05:18:46;9.70;;;2.75;;
12725;SDS011;6427;49.754;6.106;2023-09-19T05:21:13;10.60;;;2.40;;
12725;SDS011;6427;49.754;6.106;2023-09-19T05:23:41;8.33;;;2.37;;
12725;SDS011;6427;49.754;6.106;2023-09-19T05:26:09;10.33;;;2.47;;
12725;SDS011;6427;49.754;6.106;2023-09-19T05:28:36;9.02;;;2.62;;
12725;SDS011;6427;49.754;6.106;2023-09-19T05:31:05;10.95;;;2.83;;
12725;SDS011;6427;49.754;6.106;2023-09-19T05:33:32;9.03;;;2.20;;
12725;SDS011;6427;49.754;6.106;2023-09-19T05:36:00;8.60;;;2.37;;
12725;SDS011;6427;49.754;6.106;2023-09-19T05:38:27;8.80;;;2.77;;
12725;SDS011;6427;49.754;6.106;2023-09-19T05:40:56;7.90;;;2.40;;
12725;SDS011;6427;49.754;6.106;2023-09-19T05:43:24;8.83;;;2.73;;
12725;SDS011;6427;49.754;6.106;2023-09-19T05:45:51;10.57;;;2.90;;
12725;SDS011;6427;49.754;6.106;2023-09-19T05:48:19;10.33;;;2.43;;
12725;SDS011;6427;49.754;6.106;2023-09-19T05:50:46;16.07;;;2.47;;
12725;SDS011;6427;49.754;6.106;2023-09-19T05:53:14;11.73;;;2.90;;
12725;SDS011;6427;49.754;6.106;2023-09-19T05:55:41;8.23;;;1.93;;
12725;SDS011;6427;49.754;6.106;2023-09-19T05:58:10;9.83;;;2.53;;
12725;SDS011;6427;49.754;6.106;2023-09-19T06:00:37;11.80;;;2.50;;
12725;SDS011;6427;49.754;6.106;2023-09-19T06:03:06;10.55;;;2.90;;
12725;SDS011;6427;49.754;6.106;2023-09-19T06:05:34;7.60;;;2.50;;
12725;SDS011;6427;49.754;6.106;2023-09-19T06:08:02;9.27;;;2.23;;
12725;SDS011;6427;49.754;6.106;2023-09-19T06:10:30;10.27;;;2.40;;
12725;SDS011;6427;49.754;6.106;2023-09-19T06:12:58;11.97;;;2.93;;
12725;SDS011;6427;49.754;6.106;2023-09-19T06:15:25;11.57;;;3.10;;
12725;SDS011;6427;49.754;6.106;2023-09-19T06:17:54;11.93;;;2.97;;
12725;SDS011;6427;49.754;6.106;2023-09-19T06:20:24;13.43;;;2.37;;
12725;SDS011;6427;49.754;6.106;2023-09-19T06:22:52;13.60;;;2.53;;
12725;SDS011;6427;49.754;6.106;2023-09-19T06:25:19;15.87;;;3.03;;
12725;SDS011;6427;49.754;6.106;2023-09-19T06:27:48;10.93;;;2.40;;
12725;SDS011;6427;49.754;6.106;2023-09-19T06:30:15;12.70;;;2.60;;
12725;SDS011;6427;49.754;6.106;2023-09-19T06:32:43;13.53;;;2.80;;
12725;SDS011;6427;49.754;6.106;2023-09-19T06:35:13;10.57;;;2.80;;
12725;SDS011;6427;49.754;6.106;2023-09-19T06:37:41;11.40;;;2.33;;
12725;SDS011;6427;49.754;6.106;2023-09-19T06:40:09;14.40;;;2.97;;
12725;SDS011;6427;49.754;6.106;2023-09-19T06:42:45;6.23;;;2.43;;
12725;SDS011;6427;49.754;6.106;2023-09-19T06:45:15;10.90;;;2.47;;
12725;SDS011;6427;49.754;6.106;2023-09-19T06:47:39;8.90;;;2.40;;
12725;SDS011;6427;49.754;6.106;2023-09-19T06:50:07;13.03;;;2.90;;
12725;SDS011;6427;49.754;6.106;2023-09-19T06:52:35;13.07;;;3.93;;
12725;SDS011;6427;49.754;6.106;2023-09-19T06:55:03;15.93;;;3.30;;
12725;SDS011;6427;49.754;6.106;2023-09-19T06:57:30;8.70;;;2.90;;
12725;SDS011;6427;49.754;6.106;2023-09-19T06:59:58;10.37;;;2.83;;
12725;SDS011;6427;49.754;6.106;2023-09-19T07:02:26;8.97;;;3.23;;
12725;SDS011;6427;49.754;6.106;2023-09-19T07:04:53;11.80;;;3.33;;
12725;SDS011;6427;49.754;6.106;2023-09-19T07:07:21;10.10;;;3.27;;
12725;SDS011;6427;49.754;6.106;2023-09-19T07:09:49;6.60;;;2.10;;
12725;SDS011;6427;49.754;6.106;2023-09-19T07:12:17;14.77;;;2.83;;
12725;SDS011;6427;49.754;6.106;2023-09-19T07:14:44;11.98;;;3.05;;
12725;SDS011;6427;49.754;6.106;2023-09-19T07:17:12;12.13;;;2.37;;
12725;SDS011;6427;49.754;6.106;2023-09-19T07:19:40;7.50;;;2.37;;
12725;SDS011;6427;49.754;6.106;2023-09-19T07:22:07;15.03;;;2.70;;
12725;SDS011;6427;49.754;6.106;2023-09-19T07:24:35;7.97;;;2.30;;
12725;SDS011;6427;49.754;6.106;2023-09-19T07:27:02;11.27;;;2.30;;
12725;SDS011;6427;49.754;6.106;2023-09-19T07:29:30;12.37;;;2.20;;
12725;SDS011;6427;49.754;6.106;2023-09-19T07:31:57;9.83;;;2.03;;
12725;SDS011;6427;49.754;6.106;2023-09-19T07:34:25;6.40;;;2.07;;
12725;SDS011;6427;49.754;6.106;2023-09-19T07:36:53;11.10;;;2.30;;
12725;SDS011;6427;49.754;6.106;2023-09-19T07:39:22;13.13;;;2.83;;
12725;SDS011;6427;49.754;6.106;2023-09-19T07:41:49;6.57;;;1.93;;
12725;SDS011;6427;49.754;6.106;2023-09-19T07:44:17;6.57;;;2.00;;
12725;SDS011;6427;49.754;6.106;2023-09-19T07:46:45;10.13;;;2.37;;
12725;SDS011;6427;49.754;6.106;2023-09-19T07:49:13;6.63;;;2.40;;
12725;SDS011;6427;49.754;6.106;2023-09-19T07:51:41;6.87;;;1.97;;
12725;SDS011;6427;49.754;6.106;2023-09-19T07:54:08;9.33;;;2.10;;
12725;SDS011;6427;49.754;6.106;2023-09-19T07:56:36;10.97;;;2.07;;
12725;SDS011;6427;49.754;6.106;2023-09-19T07:59:03;12.37;;;2.10;;
12725;SDS011;6427;49.754;6.106;2023-09-19T08:01:31;10.03;;;2.13;;
12725;SDS011;6427;49.754;6.106;2023-09-19T08:03:59;12.20;;;2.47;;
12725;SDS011;6427;49.754;6.106;2023-09-19T08:06:26;8.67;;;2.00;;
12725;SDS011;6427;49.754;6.106;2023-09-19T08:08:54;9.57;;;1.73;;
12725;SDS011;6427;49.754;6.106;2023-09-19T08:11:22;7.67;;;1.80;;
12725;SDS011;6427;49.754;6.106;2023-09-19T08:13:50;8.80;;;2.03;;
12725;SDS011;6427;49.754;6.106;2023-09-19T08:16:18;8.30;;;1.97;;
12725;SDS011;6427;49.754;6.106;2023-09-19T08:18:49;12.43;;;2.20;;
12725;SDS011;6427;49.754;6.106;2023-09-19T08:21:16;6.97;;;1.50;;
12725;SDS011;6427;49.754;6.106;2023-09-19T08:23:44;8.70;;;1.77;;
12725;SDS011;6427;49.754;6.106;2023-09-19T08:26:11;8.70;;;2.00;;
12725;SDS011;6427;49.754;6.106;2023-09-19T08:28:39;6.53;;;1.70;;
12725;SDS011;6427;49.754;6.106;2023-09-19T08:31:10;9.03;;;2.00;;
12725;SDS011;6427;49.754;6.106;2023-09-19T08:33:38;7.73;;;2.00;;
12725;SDS011;6427;49.754;6.106;2023-09-19T08:36:06;8.83;;;2.47;;
12725;SDS011;6427;49.754;6.106;2023-09-19T08:38:33;10.13;;;2.43;;
12725;SDS011;6427;49.754;6.106;2023-09-19T08:41:04;11.65;;;2.08;;
12725;SDS011;6427;49.754;6.106;2023-09-19T08:43:28;8.37;;;2.13;;
12725;SDS011;6427;49.754;6.106;2023-09-19T08:48:32;8.80;;;1.70;;
12725;SDS011;6427;49.754;6.106;2023-09-19T08:51:07;10.67;;;1.90;;
12725;SDS011;6427;49.754;6.106;2023-09-19T08:53:40;7.10;;;1.80;;
12725;SDS011;6427;49.754;6.106;2023-09-19T08:56:14;7.73;;;1.70;;
12725;SDS011;6427;49.754;6.106;2023-09-19T08:58:44;11.02;;;2.30;;
12725;SDS011;6427;49.754;6.106;2023-09-19T09:01:13;10.43;;;2.27;;
12725;SDS011;6427;49.754;6.106;2023-09-19T09:03:39;7.10;;;1.70;;
12725;SDS011;6427;49.754;6.106;2023-09-19T09:06:08;12.20;;;1.90;;
12725;SDS011;6427;49.754;6.106;2023-09-19T09:08:34;11.47;;;2.20;;
12725;SDS011;6427;49.754;6.106;2023-09-19T09:11:02;10.85;;;2.03;;
12725;SDS011;6427;49.754;6.106;2023-09-19T09:13:30;9.67;;;2.27;;
12725;SDS011;6427;49.754;6.106;2023-09-19T09:15:58;13.10;;;2.37;;
12725;SDS011;6427;49.754;6.106;2023-09-19T09:18:28;7.93;;;1.97;;
12725;SDS011;6427;49.754;6.106;2023-09-19T09:20:54;10.50;;;2.00;;
12725;SDS011;6427;49.754;6.106;2023-09-19T09:23:22;7.77;;;1.80;;
12725;SDS011;6427;49.754;6.106;2023-09-19T09:25:50;6.73;;;1.87;;
12725;SDS011;6427;49.754;6.106;2023-09-19T09:28:24;9.48;;;2.25;;
12725;SDS011;6427;49.754;6.106;2023-09-19T09:30:51;7.30;;;1.63;;
12725;SDS011;6427;49.754;6.106;2023-09-19T09:33:18;10.13;;;1.73;;
12725;SDS011;6427;49.754;6.106;2023-09-19T09:35:49;12.20;;;2.23;;
12725;SDS011;6427;49.754;6.106;2023-09-19T09:38:19;8.07;;;2.10;;
12725;SDS011;6427;49.754;6.106;2023-09-19T09:40:47;8.07;;;1.60;;
12725;SDS011;6427;49.754;6.106;2023-09-19T09:43:25;4.47;;;1.30;;
12725;SDS011;6427;49.754;6.106;2023-09-19T09:45:52;6.20;;;1.53;;
12725;SDS011;6427;49.754;6.106;2023-09-19T09:48:17;5.23;;;1.47;;
12725;SDS011;6427;49.754;6.106;2023-09-19T09:50:48;9.60;;;1.40;;
12725;SDS011;6427;49.754;6.106;2023-09-19T09:53:25;8.27;;;2.08;;
12725;SDS011;6427;49.754;6.106;2023-09-19T09:56:05;7.25;;;1.70;;
12725;SDS011;6427;49.754;6.106;2023-09-19T09:58:36;8.17;;;1.60;;
12725;SDS011;6427;49.754;6.106;2023-09-19T10:01:04;5.03;;;1.10;;
12725;SDS011;6427;49.754;6.106;2023-09-19T10:03:38;9.00;;;1.63;;
12725;SDS011;6427;49.754;6.106;2023-09-19T10:06:11;6.03;;;1.30;;
12725;SDS011;6427;49.754;6.106;2023-09-19T10:11:45;5.43;;;1.60;;
12725;SDS011;6427;49.754;6.106;2023-09-19T10:14:18;5.57;;;1.70;;
12725;SDS011;6427;49.754;6.106;2023-09-19T10:16:46;9.27;;;1.33;;
12725;SDS011;6427;49.754;6.106;2023-09-19T10:19:21;5.97;;;1.27;;
12725;SDS011;6427;49.754;6.106;2023-09-19T10:22:05;7.50;;;1.90;;
12725;SDS011;6427;49.754;6.106;2023-09-19T10:24:33;6.50;;;1.47;;
12725;SDS011;6427;49.754;6.106;2023-09-19T10:27:00;4.47;;;1.20;;
12725;SDS011;6427;49.754;6.106;2023-09-19T10:29:28;8.23;;;1.27;;
12725;SDS011;6427;49.754;6.106;2023-09-19T10:31:56;6.43;;;1.20;;
12725;SDS011;6427;49.754;6.106;2023-09-19T10:34:24;6.60;;;1.30;;
12725;SDS011;6427;49.754;6.106;2023-09-19T10:36:51;8.35;;;1.95;;
12725;SDS011;6427;49.754;6.106;2023-09-19T10:39:19;7.17;;;1.37;;
12725;SDS011;6427;49.754;6.106;2023-09-19T10:41:47;5.43;;;1.07;;
12725;SDS011;6427;49.754;6.106;2023-09-19T10:44:15;6.95;;;1.40;;
12725;SDS011;6427;49.754;6.106;2023-09-19T10:46:42;4.63;;;1.27;;
12725;SDS011;6427;49.754;6.106;2023-09-19T10:49:10;7.95;;;1.48;;
12725;SDS011;6427;49.754;6.106;2023-09-19T10:51:39;7.27;;;1.23;;
12725;SDS011;6427;49.754;6.106;2023-09-19T10:54:06;4.83;;;0.83;;
12725;SDS011;6427;49.754;6.106;2023-09-19T10:56:33;3.20;;;0.93;;
12725;SDS011;6427;49.754;6.106;2023-09-19T11:07:07;5.77;;;1.13;;
12725;SDS011;6427;49.754;6.106;2023-09-19T11:09:55;4.73;;;1.13;;
12725;SDS011;6427;49.754;6.106;2023-09-19T11:14:59;4.50;;;1.20;;
12725;SDS011;6427;49.754;6.106;2023-09-19T11:17:30;5.43;;;1.00;;
12725;SDS011;6427;49.754;6.106;2023-09-19T11:30:37;5.82;;;1.60;;
12725;SDS011;6427;49.754;6.106;2023-09-19T11:33:15;13.43;;;1.40;;
12725;SDS011;6427;49.754;6.106;2023-09-19T11:35:59;4.43;;;0.80;;
12725;SDS011;6427;49.754;6.106;2023-09-19T11:46:56;4.53;;;1.03;;
12725;SDS011;6427;49.754;6.106;2023-09-19T11:49:25;7.33;;;1.40;;
12725;SDS011;6427;49.754;6.106;2023-09-19T11:51:47;5.63;;;1.00;;
12725;SDS011;6427;49.754;6.106;2023-09-19T11:54:14;3.57;;;1.13;;
12725;SDS011;6427;49.754;6.106;2023-09-19T11:56:45;4.87;;;1.00;;
12725;SDS011;6427;49.754;6.106;2023-09-19T11:59:13;5.62;;;1.45;;
12725;SDS011;6427;49.754;6.106;2023-09-19T12:01:42;4.43;;;0.93;;
12725;SDS011;6427;49.754;6.106;2023-09-19T12:04:10;4.90;;;1.33;;
12725;SDS011;6427;49.754;6.106;2023-09-19T12:06:36;3.97;;;1.00;;
12725;SDS011;6427;49.754;6.106;2023-09-19T12:09:04;5.03;;;0.87;;
12725;SDS011;6427;49.754;6.106;2023-09-19T12:11:40;4.50;;;0.93;;
12725;SDS011;6427;49.754;6.106;2023-09-19T12:14:02;5.13;;;1.60;;
12725;SDS011;6427;49.754;6.106;2023-09-19T12:16:30;3.63;;;1.00;;
12725;SDS011;6427;49.754;6.106;2023-09-19T12:18:57;3.50;;;1.30;;
12725;SDS011;6427;49.754;6.106;2023-09-19T12:23:59;4.77;;;1.10;;
12725;SDS011;6427;49.754;6.106;2023-09-19T12:26:42;3.35;;;1.12;;
12725;SDS011;6427;49.754;6.106;2023-09-19T12:29:05;3.37;;;0.87;;
12725;SDS011;6427;49.754;6.106;2023-09-19T12:31:34;3.10;;;0.90;;
12725;SDS011;6427;49.754;6.106;2023-09-19T12:34:02;3.13;;;1.00;;
12725;SDS011;6427;49.754;6.106;2023-09-19T12:36:30;5.17;;;1.00;;
12725;SDS011;6427;49.754;6.106;2023-09-19T12:38:57;4.70;;;1.33;;
12725;SDS011;6427;49.754;6.106;2023-09-19T12:41:28;3.70;;;1.13;;
12725;SDS011;6427;49.754;6.106;2023-09-19T12:43:53;3.53;;;0.90;;
12725;SDS011;6427;49.754;6.106;2023-09-19T12:46:21;3.90;;;1.10;;
12725;SDS011;6427;49.754;6.106;2023-09-19T12:48:48;3.83;;;1.00;;
12725;SDS011;6427;49.754;6.106;2023-09-19T12:51:15;7.17;;;1.40;;
12725;SDS011;6427;49.754;6.106;2023-09-19T12:53:43;10.57;;;1.70;;
12725;SDS011;6427;49.754;6.106;2023-09-19T12:56:11;3.17;;;1.33;;
12725;SDS011;6427;49.754;6.106;2023-09-19T13:01:18;4.85;;;1.45;;
12725;SDS011;6427;49.754;6.106;2023-09-19T13:04:09;5.07;;;1.40;;
12725;SDS011;6427;49.754;6.106;2023-09-19T13:06:14;2.97;;;1.27;;
12725;SDS011;6427;49.754;6.106;2023-09-19T13:08:42;4.60;;;1.27;;
12725;SDS011;6427;49.754;6.106;2023-09-19T13:11:10;2.67;;;1.13;;
12725;SDS011;6427;49.754;6.106;2023-09-19T13:25:08;2.27;;;0.73;;
12725;SDS011;6427;49.754;6.106;2023-09-19T13:27:34;3.63;;;0.73;;
12725;SDS011;6427;49.754;6.106;2023-09-19T13:30:02;1.90;;;0.73;;
12725;SDS011;6427;49.754;6.106;2023-09-19T13:32:31;4.17;;;1.13;;
12725;SDS011;6427;49.754;6.106;2023-09-19T13:34:57;2.63;;;0.77;;
12725;SDS011;6427;49.754;6.106;2023-09-19T13:37:26;3.93;;;1.10;;
12725;SDS011;6427;49.754;6.106;2023-09-19T13:39:53;4.30;;;1.00;;
12725;SDS011;6427;49.754;6.106;2023-09-19T13:42:21;3.23;;;0.80;;
12725;SDS011;6427;49.754;6.106;2023-09-19T13:44:48;3.60;;;0.93;;
12725;SDS011;6427;49.754;6.106;2023-09-19T13:47:16;6.43;;;1.20;;
12725;SDS011;6427;49.754;6.106;2023-09-19T13:49:44;2.83;;;0.73;;
12725;SDS011;6427;49.754;6.106;2023-09-19T13:52:12;2.75;;;1.00;;
12725;SDS011;6427;49.754;6.106;2023-09-19T13:54:40;3.40;;;0.70;;
12725;SDS011;6427;49.754;6.106;2023-09-19T13:57:08;4.10;;;0.90;;
12725;SDS011;6427;49.754;6.106;2023-09-19T13:59:36;2.30;;;0.60;;
12725;SDS011;6427;49.754;6.106;2023-09-19T14:02:03;9.53;;;1.00;;
12725;SDS011;6427;49.754;6.106;2023-09-19T14:04:31;3.40;;;1.00;;
12725;SDS011;6427;49.754;6.106;2023-09-19T14:06:58;4.97;;;0.87;;
12725;SDS011;6427;49.754;6.106;2023-09-19T14:09:26;5.32;;;1.00;;
12725;SDS011;6427;49.754;6.106;2023-09-19T14:11:54;1.73;;;0.77;;
12725;SDS011;6427;49.754;6.106;2023-09-19T14:14:22;6.97;;;1.00;;
12725;SDS011;6427;49.754;6.106;2023-09-19T14:16:50;3.80;;;0.80;;
12725;SDS011;6427;49.754;6.106;2023-09-19T14:19:17;4.65;;;1.27;;
12725;SDS011;6427;49.754;6.106;2023-09-19T14:21:45;6.83;;;1.03;;
12725;SDS011;6427;49.754;6.106;2023-09-19T14:24:17;8.37;;;1.03;;
12725;SDS011;6427;49.754;6.106;2023-09-19T14:26:45;4.47;;;0.90;;
12725;SDS011;6427;49.754;6.106;2023-09-19T14:29:12;2.47;;;1.00;;
12725;SDS011;6427;49.754;6.106;2023-09-19T14:31:39;4.37;;;1.00;;
12725;SDS011;6427;49.754;6.106;2023-09-19T14:34:08;4.23;;;0.80;;
12725;SDS011;6427;49.754;6.106;2023-09-19T14:36:35;5.43;;;1.53;;
12725;SDS011;6427;49.754;6.106;2023-09-19T14:39:04;4.83;;;1.23;;
12725;SDS011;6427;49.754;6.106;2023-09-19T14:41:31;4.60;;;1.20;;
12725;SDS011;6427;49.754;6.106;2023-09-19T14:43:59;2.13;;;0.80;;
12725;SDS011;6427;49.754;6.106;2023-09-19T14:46:26;2.10;;;0.90;;
12725;SDS011;6427;49.754;6.106;2023-09-19T14:48:55;2.90;;;1.10;;
12725;SDS011;6427;49.754;6.106;2023-09-19T14:51:22;3.13;;;1.10;;
12725;SDS011;6427;49.754;6.106;2023-09-19T14:53:51;2.43;;;0.90;;
12725;SDS011;6427;49.754;6.106;2023-09-19T14:56:18;3.23;;;1.20;;
12725;SDS011;6427;49.754;6.106;2023-09-19T14:58:47;2.17;;;1.00;;
12725;SDS011;6427;49.754;6.106;2023-09-19T15:01:15;2.17;;;1.00;;
12725;SDS011;6427;49.754;6.106;2023-09-19T15:03:43;2.17;;;0.80;;
12725;SDS011;6427;49.754;6.106;2023-09-19T15:06:11;3.28;;;1.10;;
12725;SDS011;6427;49.754;6.106;2023-09-19T15:08:44;3.30;;;0.70;;
12725;SDS011;6427;49.754;6.106;2023-09-19T15:11:11;3.20;;;0.95;;
12725;SDS011;6427;49.754;6.106;2023-09-19T15:13:39;2.60;;;0.80;;
12725;SDS011;6427;49.754;6.106;2023-09-19T15:16:07;3.47;;;1.00;;
12725;SDS011;6427;49.754;6.106;2023-09-19T15:18:37;2.20;;;1.03;;
12725;SDS011;6427;49.754;6.106;2023-09-19T15:21:05;2.93;;;1.10;;
12725;SDS011;6427;49.754;6.106;2023-09-19T15:23:32;6.63;;;1.20;;
12725;SDS011;6427;49.754;6.106;2023-09-19T15:26:00;2.47;;;0.80;;
12725;SDS011;6427;49.754;6.106;2023-09-19T15:28:27;4.73;;;0.93;;
12725;SDS011;6427;49.754;6.106;2023-09-19T15:31:01;2.03;;;0.60;;
12725;SDS011;6427;49.754;6.106;2023-09-19T15:33:32;1.73;;;0.80;;
12725;SDS011;6427;49.754;6.106;2023-09-19T15:36:05;3.47;;;1.00;;
12725;SDS011;6427;49.754;6.106;2023-09-19T15:38:55;1.37;;;0.60;;
12725;SDS011;6427;49.754;6.106;2023-09-19T15:41:00;2.50;;;0.90;;
12725;SDS011;6427;49.754;6.106;2023-09-19T15:43:30;2.83;;;1.00;;
12725;SDS011;6427;49.754;6.106;2023-09-19T15:45:57;2.17;;;0.87;;
12725;SDS011;6427;49.754;6.106;2023-09-19T15:48:25;3.83;;;0.70;;
12725;SDS011;6427;49.754;6.106;2023-09-19T15:50:52;1.73;;;0.73;;
12725;SDS011;6427;49.754;6.106;2023-09-19T15:53:20;3.17;;;0.90;;
12725;SDS011;6427;49.754;6.106;2023-09-19T15:55:48;1.20;;;0.80;;
12725;SDS011;6427;49.754;6.106;2023-09-19T15:58:16;2.77;;;0.90;;
12725;SDS011;6427;49.754;6.106;2023-09-19T16:00:43;3.65;;;1.10;;
12725;SDS011;6427;49.754;6.106;2023-09-19T16:03:12;3.37;;;0.90;;
12725;SDS011;6427;49.754;6.106;2023-09-19T16:05:39;2.67;;;0.90;;
12725;SDS011;6427;49.754;6.106;2023-09-19T16:08:08;4.73;;;1.03;;